Time;durP1;ratioP1;P1;durP2;ratioP2;P2;SDS_P1;SDS_P2;PMS_P1;PMS_P2;Temp;Humidity;BMP_temperature;BMP_pressure;BME280_temperature;BME280_humidity;BME280_pressure;Samples;Min_cycle;Max_cycle;Signal;HPM_P1;HPM_P2
2021/07/10 00:01:10;;;;;;;13.82;7.75;;;;;;;;;;10346322;28;20052;-30
2021/07/10 00:06:13;;;;;;;12.80;8.65;;;;;;;;;;10344974;28;20061;-31
2021/07/10 00:11:15;;;;;;;13.77;9.02;;;;;;;;;;10349341;28;20054;-30
2021/07/10 00:16:20;;;;;;;14.00;7.95;;;;;;;;;;10344050;28;20148;-31
2021/07/10 00:21:23;;;;;;;13.10;8.40;;;;;;;;;;10342826;28;20050;-31
2021/07/10 00:26:26;;;;;;;16.65;8.98;;;;;;;;;;10344487;28;20581;-31
2021/07/10 00:31:30;;;;;;;13.68;8.77;;;;;;;;;;10344972;28;20065;-31
2021/07/10 00:36:33;;;;;;;14.77;8.93;;;;;;;;;;10344050;28;20116;-30
2021/07/10 00:41:36;;;;;;;15.05;8.35;;;;;;;;;;10345578;28;20045;-31
2021/07/10 00:46:40;;;;;;;14.45;8.63;;;;;;;;;;10345241;28;20046;-30
2021/07/10 00:51:43;;;;;;;11.20;8.13;;;;;;;;;;10345471;28;20058;-30
2021/07/10 00:56:46;;;;;;;14.95;9.00;;;;;;;;;;10342945;28;20048;-31
2021/07/10 01:01:50;;;;;;;11.75;8.50;;;;;;;;;;10342607;28;20050;-31
2021/07/10 01:06:53;;;;;;;15.10;9.20;;;;;;;;;;10347593;28;20507;-31
2021/07/10 01:11:57;;;;;;;17.15;9.82;;;;;;;;;;10350603;28;20042;-30
2021/07/10 01:17:01;;;;;;;14.05;8.95;;;;;;;;;;10351403;28;20044;-31
2021/07/10 01:22:08;;;;;;;16.05;8.82;;;;;;;;;;10354526;28;20041;-32
2021/07/10 01:27:10;;;;;;;13.25;8.27;;;;;;;;;;10346858;28;20396;-30
2021/07/10 01:32:16;;;;;;;14.13;8.85;;;;;;;;;;10351718;28;20060;-30
2021/07/10 01:37:21;;;;;;;14.30;9.40;;;;;;;;;;10353020;28;20410;-31
2021/07/10 01:42:23;;;;;;;14.85;8.95;;;;;;;;;;10346066;28;20057;-30
2021/07/10 01:47:26;;;;;;;15.57;9.32;;;;;;;;;;10347622;28;20046;-32
2021/07/10 01:52:30;;;;;;;15.52;8.75;;;;;;;;;;10351500;28;20380;-31
2021/07/10 01:57:33;;;;;;;13.35;8.30;;;;;;;;;;10350792;28;20045;-31
2021/07/10 02:02:36;;;;;;;11.57;7.70;;;;;;;;;;10352024;28;20053;-31
2021/07/10 02:07:40;;;;;;;14.38;8.52;;;;;;;;;;10347138;28;20045;-30
2021/07/10 02:12:43;;;;;;;11.85;8.52;;;;;;;;;;10348345;28;20038;-31
2021/07/10 02:17:47;;;;;;;12.98;7.10;;;;;;;;;;10346358;28;20046;-32
2021/07/10 02:22:51;;;;;;;16.30;8.50;;;;;;;;;;10350448;28;20161;-30
2021/07/10 02:27:54;;;;;;;14.00;7.88;;;;;;;;;;10349154;28;20054;-30
2021/07/10 02:32:57;;;;;;;13.85;8.68;;;;;;;;;;10351552;28;20042;-31
2021/07/10 02:38:03;;;;;;;12.02;8.40;;;;;;;;;;10347049;28;20799;-30
2021/07/10 02:43:06;;;;;;;12.75;7.57;;;;;;;;;;10341137;28;20050;-32
2021/07/10 02:48:09;;;;;;;14.48;8.43;;;;;;;;;;10343856;28;20065;-31
2021/07/10 02:53:13;;;;;;;13.27;8.30;;;;;;;;;;10347403;28;20720;-30
2021/07/10 02:58:16;;;;;;;16.98;8.25;;;;;;;;;;10347943;28;20045;-31
2021/07/10 03:03:18;;;;;;;11.10;7.47;;;;;;;;;;10345323;28;20042;-31
2021/07/10 03:08:25;;;;;;;13.77;7.72;;;;;;;;;;10346619;28;20164;-31
2021/07/10 03:13:28;;;;;;;14.98;8.43;;;;;;;;;;10347339;28;20423;-30
2021/07/10 03:18:31;;;;;;;10.80;7.90;;;;;;;;;;10346634;28;20056;-31
2021/07/10 03:23:37;;;;;;;11.05;7.82;;;;;;;;;;10349222;28;20175;-31
2021/07/10 03:28:40;;;;;;;15.00;9.38;;;;;;;;;;10348526;28;20103;-30
2021/07/10 03:33:44;;;;;;;14.35;8.90;;;;;;;;;;10347520;28;20046;-30
2021/07/10 03:38:48;;;;;;;15.45;9.25;;;;;;;;;;10340792;28;20050;-30
2021/07/10 03:43:52;;;;;;;15.35;9.23;;;;;;;;;;10348377;28;20152;-30
2021/07/10 03:48:55;;;;;;;16.70;9.13;;;;;;;;;;10344898;28;20060;-30
2021/07/10 03:53:59;;;;;;;13.15;9.05;;;;;;;;;;10346111;28;20037;-30
2021/07/10 03:59:01;;;;;;;14.10;9.77;;;;;;;;;;10348812;28;20044;-30
2021/07/10 04:04:04;;;;;;;16.15;10.43;;;;;;;;;;10349874;28;20403;-31
2021/07/10 04:09:08;;;;;;;15.88;9.52;;;;;;;;;;10346530;28;20487;-30
2021/07/10 04:14:11;;;;;;;15.05;10.05;;;;;;;;;;10342942;28;20044;-31
2021/07/10 04:19:14;;;;;;;15.32;9.43;;;;;;;;;;10340921;28;20050;-30
2021/07/10 04:24:18;;;;;;;19.45;10.35;;;;;;;;;;10333725;28;20050;-30
2021/07/10 04:29:21;;;;;;;14.15;9.57;;;;;;;;;;10342231;28;20419;-30
2021/07/10 04:34:23;;;;;;;18.52;10.45;;;;;;;;;;10339115;28;20053;-30
2021/07/10 04:39:27;;;;;;;16.35;10.60;;;;;;;;;;10350466;28;20411;-31
2021/07/10 04:44:31;;;;;;;18.83;10.05;;;;;;;;;;10351075;28;20033;-30
2021/07/10 04:49:34;;;;;;;16.92;9.57;;;;;;;;;;10347603;28;20054;-32
2021/07/10 04:54:38;;;;;;;17.83;10.27;;;;;;;;;;10331854;28;20062;-30
2021/07/10 04:59:41;;;;;;;15.43;10.05;;;;;;;;;;10313490;28;20500;-31
2021/07/10 05:04:44;;;;;;;17.90;10.95;;;;;;;;;;10318760;28;20049;-31
2021/07/10 05:09:49;;;;;;;17.83;11.13;;;;;;;;;;10323707;28;20492;-31
2021/07/10 05:14:53;;;;;;;20.63;12.93;;;;;;;;;;10317487;28;21098;-30
2021/07/10 05:19:57;;;;;;;21.88;12.65;;;;;;;;;;10317474;28;20129;-31
2021/07/10 05:25:02;;;;;;;21.15;13.00;;;;;;;;;;10322847;28;20043;-31
2021/07/10 05:30:06;;;;;;;18.80;13.25;;;;;;;;;;10321372;28;20157;-31
2021/07/10 05:35:11;;;;;;;19.58;12.88;;;;;;;;;;10324650;28;20121;-31
2021/07/10 05:40:16;;;;;;;22.63;13.30;;;;;;;;;;10327177;28;20054;-31
2021/07/10 05:45:19;;;;;;;21.90;13.52;;;;;;;;;;10327167;28;20487;-31
2021/07/10 05:50:22;;;;;;;19.85;14.80;;;;;;;;;;10329628;28;20046;-31
2021/07/10 05:55:26;;;;;;;19.60;13.23;;;;;;;;;;10329319;28;20046;-32
2021/07/10 06:00:31;;;;;;;20.67;13.68;;;;;;;;;;10328681;28;20415;-32
2021/07/10 06:05:33;;;;;;;20.80;14.35;;;;;;;;;;10318622;28;20486;-31
2021/07/10 06:10:37;;;;;;;22.38;15.25;;;;;;;;;;10336507;28;20053;-32
2021/07/10 06:15:40;;;;;;;18.73;12.82;;;;;;;;;;10331768;28;20045;-30
2021/07/10 06:20:44;;;;;;;20.92;13.40;;;;;;;;;;10307960;28;20050;-30
2021/07/10 06:25:51;;;;;;;19.98;12.25;;;;;;;;;;10310164;28;20038;-31
2021/07/10 06:30:57;;;;;;;19.25;12.70;;;;;;;;;;10314729;28;20065;-31
2021/07/10 06:36:01;;;;;;;23.35;13.30;;;;;;;;;;10337061;28;20046;-31
2021/07/10 06:41:05;;;;;;;19.17;13.88;;;;;;;;;;10346389;28;20057;-31
2021/07/10 06:46:09;;;;;;;17.95;12.52;;;;;;;;;;10342423;28;20044;-32
2021/07/10 06:51:11;;;;;;;19.35;12.88;;;;;;;;;;10346934;28;20133;-30
2021/07/10 06:56:16;;;;;;;20.13;13.68;;;;;;;;;;10342972;28;20483;-32
2021/07/10 07:01:18;;;;;;;20.30;14.73;;;;;;;;;;10346714;28;20483;-30
2021/07/10 07:06:22;;;;;;;20.35;13.48;;;;;;;;;;10347690;28;20400;-31
2021/07/10 07:11:26;;;;;;;21.38;13.65;;;;;;;;;;10344490;28;20477;-31
2021/07/10 07:16:28;;;;;;;22.55;16.48;;;;;;;;;;10345780;28;20479;-31
2021/07/10 07:21:31;;;;;;;22.33;15.75;;;;;;;;;;10346038;28;20153;-31
2021/07/10 07:26:36;;;;;;;28.27;17.95;;;;;;;;;;10349527;28;20128;-31
2021/07/10 07:31:39;;;;;;;24.63;15.95;;;;;;;;;;10343664;28;20393;-30
2021/07/10 07:36:42;;;;;;;22.02;17.23;;;;;;;;;;10341954;28;20046;-31
2021/07/10 07:41:46;;;;;;;24.08;17.42;;;;;;;;;;10343673;28;20061;-30
2021/07/10 07:46:48;;;;;;;24.63;17.27;;;;;;;;;;10346874;28;20046;-31
2021/07/10 07:51:51;;;;;;;28.10;20.35;;;;;;;;;;10336743;28;20112;-30
2021/07/10 07:56:55;;;;;;;26.63;18.65;;;;;;;;;;10348819;28;20049;-30
2021/07/10 08:01:58;;;;;;;33.63;20.55;;;;;;;;;;10350094;28;20050;-31
2021/07/10 08:07:01;;;;;;;24.65;18.50;;;;;;;;;;10347638;28;20502;-31
2021/07/10 08:12:05;;;;;;;24.40;19.83;;;;;;;;;;10345366;28;20041;-30
2021/07/10 08:17:08;;;;;;;29.52;20.75;;;;;;;;;;10353532;28;20050;-31
2021/07/10 08:22:11;;;;;;;30.48;21.00;;;;;;;;;;10356206;28;20069;-32
2021/07/10 08:27:17;;;;;;;27.88;21.08;;;;;;;;;;10351405;28;20132;-30
2021/07/10 08:32:20;;;;;;;31.13;22.30;;;;;;;;;;10358043;28;20050;-30
2021/07/10 08:37:23;;;;;;;26.58;20.77;;;;;;;;;;10351781;28;20042;-30
2021/07/10 08:42:27;;;;;;;29.00;18.98;;;;;;;;;;10354023;28;20060;-30
2021/07/10 08:47:31;;;;;;;28.65;20.13;;;;;;;;;;10351587;28;20527;-30
2021/07/10 08:52:35;;;;;;;27.05;19.08;;;;;;;;;;10353723;28;20084;-30
2021/07/10 08:57:39;;;;;;;25.08;17.88;;;;;;;;;;10351802;28;20045;-30
2021/07/10 09:02:43;;;;;;;23.20;18.17;;;;;;;;;;10357191;28;20458;-32
2021/07/10 09:08:04;;;;;;;19.95;16.55;;;;;;;;;;10352239;28;20045;-30
2021/07/10 09:13:08;;;;;;;20.80;15.77;;;;;;;;;;10349744;28;20050;-30
2021/07/10 09:18:11;;;;;;;22.80;16.60;;;;;;;;;;10352214;28;20050;-29
2021/07/10 09:23:24;;;;;;;20.23;14.90;;;;;;;;;;10354457;28;20050;-29
2021/07/10 09:28:29;;;;;;;18.15;15.23;;;;;;;;;;10348462;28;20042;-29
2021/07/10 09:33:32;;;;;;;21.25;16.00;;;;;;;;;;10340239;28;20418;-28
2021/07/10 09:38:35;;;;;;;22.75;16.33;;;;;;;;;;10345656;28;20034;-29
2021/07/10 09:43:40;;;;;;;20.88;15.07;;;;;;;;;;10345103;28;20859;-29
2021/07/10 09:48:42;;;;;;;19.33;17.13;;;;;;;;;;10341447;28;20038;-28
2021/07/10 09:53:57;;;;;;;19.48;16.55;;;;;;;;;;10340950;28;20062;-29
2021/07/10 09:59:15;;;;;;;18.75;15.23;;;;;;;;;;10341670;28;20045;-29
2021/07/10 10:04:23;;;;;;;17.95;15.52;;;;;;;;;;10342287;28;20053;-28
2021/07/10 10:09:27;;;;;;;18.55;14.98;;;;;;;;;;10346987;28;20046;-28
2021/07/10 10:14:32;;;;;;;17.73;14.27;;;;;;;;;;10354170;28;20034;-28
2021/07/10 10:19:36;;;;;;;16.90;13.80;;;;;;;;;;10348700;28;20049;-28
2021/07/10 10:24:39;;;;;;;19.30;16.08;;;;;;;;;;10351225;28;20038;-28
2021/07/10 10:29:44;;;;;;;17.77;14.93;;;;;;;;;;10347413;28;20053;-28
2021/07/10 10:34:48;;;;;;;20.98;16.10;;;;;;;;;;10349985;28;20418;-29
2021/07/10 10:39:51;;;;;;;19.02;16.15;;;;;;;;;;10347061;28;20049;-29
2021/07/10 10:44:58;;;;;;;17.83;15.43;;;;;;;;;;10347931;28;20042;-28
2021/07/10 10:50:00;;;;;;;14.63;12.70;;;;;;;;;;10344147;28;20046;-30
2021/07/10 10:55:07;;;;;;;14.70;11.48;;;;;;;;;;10337949;28;20164;-28
2021/07/10 11:00:13;;;;;;;14.95;12.07;;;;;;;;;;10344376;28;20057;-28
2021/07/10 11:05:16;;;;;;;11.90;10.50;;;;;;;;;;10344151;28;20042;-28
2021/07/10 11:10:25;;;;;;;12.45;10.40;;;;;;;;;;10343994;28;20420;-28
2021/07/10 11:15:44;;;;;;;11.98;8.65;;;;;;;;;;10348390;28;20052;-28
2021/07/10 11:20:48;;;;;;;10.10;8.52;;;;;;;;;;10341125;28;20474;-28
2021/07/10 11:26:07;;;;;;;9.90;7.93;;;;;;;;;;10343509;28;20049;-29
2021/07/10 11:31:17;;;;;;;9.90;8.68;;;;;;;;;;10336152;28;20067;-28
2021/07/10 11:36:37;;;;;;;9.80;8.30;;;;;;;;;;10343152;28;20065;-28
2021/07/10 11:41:40;;;;;;;9.48;8.48;;;;;;;;;;10334705;28;20042;-28
2021/07/10 11:47:01;;;;;;;9.57;7.78;;;;;;;;;;10344229;28;20049;-28
2021/07/10 11:52:06;;;;;;;9.30;8.30;;;;;;;;;;10339858;28;20059;-30
2021/07/10 11:57:09;;;;;;;8.80;7.90;;;;;;;;;;10342798;28;20034;-29
2021/07/10 12:02:15;;;;;;;9.55;8.25;;;;;;;;;;10347784;28;20054;-28
2021/07/10 12:07:22;;;;;;;8.32;7.28;;;;;;;;;;10345879;28;20046;-28
2021/07/10 12:12:25;;;;;;;8.05;6.82;;;;;;;;;;10337390;28;20050;-28
2021/07/10 12:17:28;;;;;;;8.00;7.18;;;;;;;;;;10347301;28;20388;-28
2021/07/10 12:22:32;;;;;;;9.18;7.82;;;;;;;;;;10337424;28;20057;-28
2021/07/10 12:27:35;;;;;;;8.50;7.22;;;;;;;;;;10339550;28;20042;-28
2021/07/10 12:32:37;;;;;;;8.73;7.30;;;;;;;;;;10341331;28;20293;-28
2021/07/10 12:37:41;;;;;;;8.30;7.10;;;;;;;;;;10345899;28;20042;-28
2021/07/10 12:42:44;;;;;;;9.57;7.55;;;;;;;;;;10344734;28;20406;-28
2021/07/10 12:47:47;;;;;;;8.10;7.30;;;;;;;;;;10342941;28;20053;-30
2021/07/10 12:52:59;;;;;;;7.38;6.68;;;;;;;;;;10340587;28;20415;-28
2021/07/10 12:58:02;;;;;;;7.28;6.50;;;;;;;;;;10339954;28;20045;-28
2021/07/10 13:03:07;;;;;;;7.40;6.70;;;;;;;;;;10356065;28;20046;-28
2021/07/10 13:08:13;;;;;;;7.00;6.30;;;;;;;;;;10348464;28;20069;-28
2021/07/10 13:13:18;;;;;;;6.65;5.95;;;;;;;;;;10355662;28;20403;-28
2021/07/10 13:18:22;;;;;;;7.07;5.60;;;;;;;;;;10351177;28;20034;-28
2021/07/10 13:23:27;;;;;;;7.45;5.53;;;;;;;;;;10348078;28;20483;-28
2021/07/10 13:28:34;;;;;;;5.95;5.00;;;;;;;;;;10346263;28;20050;-28
2021/07/10 13:33:37;;;;;;;5.95;4.90;;;;;;;;;;10348816;28;20053;-28
2021/07/10 13:38:43;;;;;;;5.47;4.70;;;;;;;;;;10344796;28;20041;-28
2021/07/10 13:44:00;;;;;;;5.15;4.20;;;;;;;;;;10350096;28;20376;-28
2021/07/10 13:49:26;;;;;;;5.32;4.00;;;;;;;;;;10346662;28;20106;-28
2021/07/10 13:54:34;;;;;;;5.40;4.65;;;;;;;;;;10351214;28;20053;-30
2021/07/10 13:59:37;;;;;;;5.63;3.72;;;;;;;;;;10352998;28;20041;-28
2021/07/10 14:04:40;;;;;;;5.32;4.40;;;;;;;;;;10349325;28;20072;-28
2021/07/10 14:09:44;;;;;;;5.80;4.50;;;;;;;;;;10349684;28;20041;-27
2021/07/10 14:14:47;;;;;;;5.00;4.32;;;;;;;;;;10352996;28;20052;-29
2021/07/10 14:19:49;;;;;;;5.57;4.28;;;;;;;;;;10351162;28;20224;-28
2021/07/10 14:24:53;;;;;;;6.15;4.15;;;;;;;;;;10350459;28;20038;-27
2021/07/10 14:29:56;;;;;;;5.95;4.43;;;;;;;;;;10346565;28;20626;-28
2021/07/10 14:35:18;;;;;;;;;;;;;;;;;;10342207;28;20045;-27
2021/07/10 14:40:24;;;;;;;5.38;4.20;;;;;;;;;;10350039;28;20425;-28
2021/07/10 14:45:27;;;;;;;5.38;4.03;;;;;;;;;;10346312;28;20046;-27
2021/07/10 14:50:30;;;;;;;6.05;4.43;;;;;;;;;;10352240;28;20495;-27
2021/07/10 14:55:37;;;;;;;5.13;3.85;;;;;;;;;;10344161;28;20053;-28
2021/07/10 15:00:39;;;;;;;4.65;3.90;;;;;;;;;;10347237;28;20130;-28
2021/07/10 15:05:43;;;;;;;4.43;3.95;;;;;;;;;;10346190;28;20215;-28
2021/07/10 15:10:47;;;;;;;4.90;4.20;;;;;;;;;;10343973;28;20391;-28
2021/07/10 15:15:50;;;;;;;4.43;4.00;;;;;;;;;;10347012;28;20502;-28
2021/07/10 15:20:52;;;;;;;3.80;3.33;;;;;;;;;;10344105;28;20042;-27
2021/07/10 15:25:57;;;;;;;4.15;3.60;;;;;;;;;;10345963;28;20407;-28
2021/07/10 15:30:59;;;;;;;4.75;3.55;;;;;;;;;;10350787;28;20056;-27
2021/07/10 15:36:02;;;;;;;4.20;3.75;;;;;;;;;;10346313;28;20049;-28
2021/07/10 15:41:06;;;;;;;5.07;3.88;;;;;;;;;;10346053;28;20621;-28
2021/07/10 15:46:09;;;;;;;4.90;3.65;;;;;;;;;;10361351;28;20056;-27
2021/07/10 15:51:12;;;;;;;4.35;3.60;;;;;;;;;;10359871;28;20775;-27
2021/07/10 15:56:16;;;;;;;4.32;3.30;;;;;;;;;;10361651;28;20045;-27
2021/07/10 16:01:19;;;;;;;4.00;3.45;;;;;;;;;;10361717;28;20115;-27
2021/07/10 16:06:22;;;;;;;2.92;2.63;;;;;;;;;;10368820;28;20068;-27
2021/07/10 16:11:26;;;;;;;4.68;3.20;;;;;;;;;;10365015;28;20391;-28
2021/07/10 16:16:30;;;;;;;5.13;3.10;;;;;;;;;;10362572;28;20516;-28
2021/07/10 16:21:33;;;;;;;3.85;3.33;;;;;;;;;;10346276;28;20136;-28
2021/07/10 16:26:38;;;;;;;4.72;3.70;;;;;;;;;;10351086;28;20037;-28
2021/07/10 16:31:40;;;;;;;18.45;3.67;;;;;;;;;;10350997;28;20053;-28
2021/07/10 16:36:43;;;;;;;6.15;2.90;;;;;;;;;;10353205;28;20046;-29
2021/07/10 16:41:47;;;;;;;3.95;2.80;;;;;;;;;;10351976;28;20053;-29
2021/07/10 16:46:50;;;;;;;3.45;2.92;;;;;;;;;;10352802;28;20424;-29
2021/07/10 16:51:54;;;;;;;3.20;2.90;;;;;;;;;;10357384;28;20037;-29
2021/07/10 16:57:00;;;;;;;4.60;3.53;;;;;;;;;;10355085;28;20121;-29
2021/07/10 17:02:03;;;;;;;4.70;3.00;;;;;;;;;;10349732;28;20049;-28
2021/07/10 17:07:06;;;;;;;7.18;5.20;;;;;;;;;;10353137;28;20030;-32
2021/07/10 17:12:10;;;;;;;4.55;3.28;;;;;;;;;;10348524;28;20046;-29
2021/07/10 17:17:13;;;;;;;4.75;3.60;;;;;;;;;;10351385;28;20053;-29
2021/07/10 17:22:17;;;;;;;4.97;4.30;;;;;;;;;;10341881;28;20045;-31
2021/07/10 17:27:21;;;;;;;5.13;4.10;;;;;;;;;;10353094;28;20049;-29
2021/07/10 17:32:24;;;;;;;5.70;4.10;;;;;;;;;;10346725;28;20046;-29
2021/07/10 17:37:26;;;;;;;4.88;3.40;;;;;;;;;;10352523;28;20049;-30
2021/07/10 17:42:30;;;;;;;6.05;3.80;;;;;;;;;;10356922;28;20050;-28
2021/07/10 17:47:33;;;;;;;4.53;3.80;;;;;;;;;;10364418;28;20040;-28
2021/07/10 17:52:36;;;;;;;4.55;3.95;;;;;;;;;;10359759;28;20404;-28
2021/07/10 17:57:41;;;;;;;5.63;4.28;;;;;;;;;;10359844;28;20388;-28
2021/07/10 18:02:44;;;;;;;4.50;4.10;;;;;;;;;;10358702;28;20426;-29
2021/07/10 18:07:47;;;;;;;5.75;4.38;;;;;;;;;;10354090;28;20034;-28
2021/07/10 18:12:51;;;;;;;4.97;4.40;;;;;;;;;;10363915;28;20780;-28
2021/07/10 18:17:54;;;;;;;4.97;4.45;;;;;;;;;;10351995;28;20050;-29
2021/07/10 18:22:57;;;;;;;5.53;5.00;;;;;;;;;;10350395;28;20038;-28
2021/07/10 18:28:01;;;;;;;6.68;5.60;;;;;;;;;;10343583;28;20573;-29
2021/07/10 18:33:04;;;;;;;6.97;5.68;;;;;;;;;;10349681;28;20049;-27
2021/07/10 18:38:11;;;;;;;6.88;6.18;;;;;;;;;;10344233;28;20049;-27
2021/07/10 18:43:15;;;;;;;9.27;7.57;;;;;;;;;;10339104;28;20046;-28
2021/07/10 18:48:18;;;;;;;8.65;7.05;;;;;;;;;;10329861;28;20953;-27
2021/07/10 18:53:21;;;;;;;8.05;6.07;;;;;;;;;;10347864;28;20041;-28
2021/07/10 18:58:25;;;;;;;7.47;6.28;;;;;;;;;;10334936;28;20042;-27
2021/07/10 19:03:28;;;;;;;7.10;6.07;;;;;;;;;;10338498;28;20046;-28
2021/07/10 19:08:31;;;;;;;9.85;7.07;;;;;;;;;;10349761;28;20042;-27
2021/07/10 19:13:35;;;;;;;8.52;7.43;;;;;;;;;;10347622;28;20507;-27
2021/07/10 19:18:38;;;;;;;7.45;6.75;;;;;;;;;;10341110;28;20076;-27
2021/07/10 19:23:41;;;;;;;9.25;7.88;;;;;;;;;;10350601;28;20042;-27
2021/07/10 19:28:45;;;;;;;8.70;7.80;;;;;;;;;;10353365;28;20043;-27
2021/07/10 19:33:49;;;;;;;9.23;7.75;;;;;;;;;;10339602;28;20522;-27
2021/07/10 19:38:53;;;;;;;10.13;8.05;;;;;;;;;;10334315;28;20057;-27
2021/07/10 19:43:57;;;;;;;8.68;7.78;;;;;;;;;;10343140;28;20392;-30
2021/07/10 19:49:00;;;;;;;10.30;8.18;;;;;;;;;;10346832;28;20046;-27
2021/07/10 19:54:03;;;;;;;9.70;8.52;;;;;;;;;;10342455;28;20042;-27
2021/07/10 19:59:07;;;;;;;9.60;8.13;;;;;;;;;;10340934;28;20054;-27
2021/07/10 20:04:09;;;;;;;8.68;7.78;;;;;;;;;;10358890;28;20140;-28
2021/07/10 20:09:13;;;;;;;11.35;8.20;;;;;;;;;;10362054;28;20491;-28
2021/07/10 20:14:17;;;;;;;11.18;8.80;;;;;;;;;;10352522;28;20053;-27
2021/07/10 20:19:20;;;;;;;8.90;8.00;;;;;;;;;;10345902;28;20045;-28
2021/07/10 20:24:22;;;;;;;8.93;8.02;;;;;;;;;;10347437;28;20081;-27
2021/07/10 20:29:26;;;;;;;9.43;8.52;;;;;;;;;;10346076;28;20042;-27
2021/07/10 20:34:31;;;;;;;10.55;9.25;;;;;;;;;;10348976;28;20096;-27
2021/07/10 20:39:34;;;;;;;10.55;9.20;;;;;;;;;;10346471;28;20050;-27
2021/07/10 20:44:38;;;;;;;10.27;9.15;;;;;;;;;;10349241;28;20038;-27
2021/07/10 20:49:40;;;;;;;11.93;8.95;;;;;;;;;;10347025;28;20049;-27
2021/07/10 20:54:43;;;;;;;10.57;9.38;;;;;;;;;;10342480;28;20038;-27
2021/07/10 20:59:47;;;;;;;11.32;9.35;;;;;;;;;;10335128;28;20045;-27
2021/07/10 21:04:50;;;;;;;11.68;9.40;;;;;;;;;;10335656;28;20092;-27
2021/07/10 21:09:53;;;;;;;10.50;9.13;;;;;;;;;;10342798;28;20038;-27
2021/07/10 21:14:57;;;;;;;11.30;9.75;;;;;;;;;;10348440;28;20041;-27
2021/07/10 21:20:01;;;;;;;11.70;10.40;;;;;;;;;;10350255;28;20108;-27
2021/07/10 21:25:05;;;;;;;14.40;10.30;;;;;;;;;;10356320;28;20077;-25
2021/07/10 21:30:10;;;;;;;10.60;9.35;;;;;;;;;;10351540;28;20042;-26
2021/07/10 21:35:14;;;;;;;11.23;9.55;;;;;;;;;;10345081;28;20073;-25
2021/07/10 21:40:18;;;;;;;10.18;8.40;;;;;;;;;;10350722;28;20052;-25
2021/07/10 21:45:23;;;;;;;10.63;9.52;;;;;;;;;;10353479;28;20060;-25
2021/07/10 21:50:26;;;;;;;13.48;10.13;;;;;;;;;;10350116;28;20463;-26
2021/07/10 21:55:30;;;;;;;14.02;9.90;;;;;;;;;;10353202;28;20619;-26
2021/07/10 22:01:06;;;;;;;12.02;10.75;;;;;;;;;;10350550;28;20042;-26
2021/07/10 22:06:10;;;;;;;11.82;9.40;;;;;;;;;;10344266;28;20155;-24
2021/07/10 22:11:13;;;;;;;11.15;9.95;;;;;;;;;;10352816;28;20384;-24
2021/07/10 22:16:16;;;;;;;12.13;10.02;;;;;;;;;;10352632;28;20522;-24
2021/07/10 22:21:20;;;;;;;11.45;10.07;;;;;;;;;;10346337;28;20113;-24
2021/07/10 22:26:23;;;;;;;15.95;10.48;;;;;;;;;;10352434;28;20049;-24
2021/07/10 22:31:28;;;;;;;14.57;10.82;;;;;;;;;;10351073;28;20085;-24
2021/07/10 22:36:32;;;;;;;12.43;9.95;;;;;;;;;;10345912;28;20041;-24
2021/07/10 22:41:34;;;;;;;12.00;10.52;;;;;;;;;;10344266;28;20041;-25
2021/07/10 22:46:37;;;;;;;12.73;10.90;;;;;;;;;;10351558;28;20399;-24
2021/07/10 22:51:41;;;;;;;11.13;9.77;;;;;;;;;;10347687;28;20050;-24
2021/07/10 22:56:44;;;;;;;12.60;10.13;;;;;;;;;;10349995;28;20053;-24
2021/07/10 23:01:48;;;;;;;12.85;10.48;;;;;;;;;;10348910;28;20048;-24
2021/07/10 23:06:52;;;;;;;15.02;10.23;;;;;;;;;;10350153;28;20407;-24
2021/07/10 23:11:56;;;;;;;11.77;9.70;;;;;;;;;;10342867;28;20049;-24
2021/07/10 23:16:58;;;;;;;12.65;9.50;;;;;;;;;;10347457;28;20064;-25
2021/07/10 23:22:02;;;;;;;13.57;10.65;;;;;;;;;;10348709;28;20153;-24
2021/07/10 23:27:05;;;;;;;11.88;9.70;;;;;;;;;;10350594;28;20053;-24
2021/07/10 23:32:08;;;;;;;12.20;9.75;;;;;;;;;;10346994;28;20484;-24
2021/07/10 23:37:12;;;;;;;12.63;10.20;;;;;;;;;;10351371;28;20733;-24
2021/07/10 23:42:14;;;;;;;12.15;9.98;;;;;;;;;;10345359;28;20427;-24
2021/07/10 23:47:17;;;;;;;11.27;10.05;;;;;;;;;;10350007;28;20046;-25
2021/07/10 23:52:21;;;;;;;17.65;10.50;;;;;;;;;;10349270;28;20085;-24
2021/07/10 23:57:24;;;;;;;11.90;9.85;;;;;;;;;;10350376;28;20212;-24
